sensor_id;sensor_type;location;lat;lon;timestamp;P1;durP1;ratioP1;P2;durP2;ratioP2
77324;SDS011;66387;53.440;10.390;2024-02-21T00:00:35;22.63;;;11.60;;
77324;SDS011;66387;53.440;10.390;2024-02-21T00:03:00;31.50;;;12.60;;
77324;SDS011;66387;53.440;10.390;2024-02-21T00:05:27;23.00;;;11.75;;
77324;SDS011;66387;53.440;10.390;2024-02-21T00:07:52;20.42;;;11.20;;
77324;SDS011;66387;53.440;10.390;2024-02-21T00:10:17;21.10;;;10.73;;
77324;SDS011;66387;53.440;10.390;2024-02-21T00:12:43;23.20;;;11.10;;
77324;SDS011;66387;53.440;10.390;2024-02-21T00:15:08;24.15;;;11.15;;
77324;SDS011;66387;53.440;10.390;2024-02-21T00:17:34;19.35;;;11.13;;
77324;SDS011;66387;53.440;10.390;2024-02-21T00:19:59;29.03;;;13.13;;
77324;SDS011;66387;53.440;10.390;2024-02-21T00:22:24;24.90;;;11.20;;
77324;SDS011;66387;53.440;10.390;2024-02-21T00:24:53;19.88;;;11.52;;
77324;SDS011;66387;53.440;10.390;2024-02-21T00:27:18;29.42;;;12.00;;
77324;SDS011;66387;53.440;10.390;2024-02-21T00:29:43;27.53;;;11.20;;
77324;SDS011;66387;53.440;10.390;2024-02-21T00:32:09;22.50;;;12.30;;
77324;SDS011;66387;53.440;10.390;2024-02-21T00:34:34;23.27;;;11.33;;
77324;SDS011;66387;53.440;10.390;2024-02-21T00:37:00;21.88;;;12.25;;
77324;SDS011;66387;53.440;10.390;2024-02-21T00:39:25;26.87;;;12.20;;
77324;SDS011;66387;53.440;10.390;2024-02-21T00:41:51;30.43;;;12.63;;
77324;SDS011;66387;53.440;10.390;2024-02-21T00:44:16;30.67;;;13.77;;
77324;SDS011;66387;53.440;10.390;2024-02-21T00:46:41;25.10;;;11.63;;
77324;SDS011;66387;53.440;10.390;2024-02-21T00:49:06;25.60;;;12.53;;
77324;SDS011;66387;53.440;10.390;2024-02-21T00:51:32;21.03;;;12.43;;
77324;SDS011;66387;53.440;10.390;2024-02-21T00:53:57;22.40;;;10.33;;
77324;SDS011;66387;53.440;10.390;2024-02-21T00:56:22;20.43;;;11.47;;
77324;SDS011;66387;53.440;10.390;2024-02-21T00:58:47;21.90;;;10.80;;
77324;SDS011;66387;53.440;10.390;2024-02-21T01:01:13;26.17;;;12.10;;
77324;SDS011;66387;53.440;10.390;2024-02-21T01:03:39;24.27;;;13.38;;
77324;SDS011;66387;53.440;10.390;2024-02-21T01:06:04;20.05;;;10.88;;
77324;SDS011;66387;53.440;10.390;2024-02-21T01:08:30;22.77;;;12.27;;
77324;SDS011;66387;53.440;10.390;2024-02-21T01:10:55;23.43;;;13.93;;
77324;SDS011;66387;53.440;10.390;2024-02-21T01:13:20;27.87;;;12.87;;
77324;SDS011;66387;53.440;10.390;2024-02-21T01:15:45;24.93;;;12.73;;
77324;SDS011;66387;53.440;10.390;2024-02-21T01:18:10;23.70;;;11.50;;
77324;SDS011;66387;53.440;10.390;2024-02-21T01:20:36;24.20;;;12.70;;
77324;SDS011;66387;53.440;10.390;2024-02-21T01:23:01;26.37;;;12.13;;
77324;SDS011;66387;53.440;10.390;2024-02-21T01:25:26;26.15;;;11.98;;
77324;SDS011;66387;53.440;10.390;2024-02-21T01:27:52;27.63;;;12.87;;
77324;SDS011;66387;53.440;10.390;2024-02-21T01:30:17;22.53;;;11.33;;
77324;SDS011;66387;53.440;10.390;2024-02-21T01:32:42;25.10;;;12.27;;
77324;SDS011;66387;53.440;10.390;2024-02-21T01:35:08;24.27;;;11.90;;
77324;SDS011;66387;53.440;10.390;2024-02-21T01:37:33;25.88;;;12.10;;
77324;SDS011;66387;53.440;10.390;2024-02-21T01:39:58;24.60;;;13.57;;
77324;SDS011;66387;53.440;10.390;2024-02-21T01:42:23;25.33;;;13.10;;
77324;SDS011;66387;53.440;10.390;2024-02-21T01:44:49;27.83;;;13.37;;
77324;SDS011;66387;53.440;10.390;2024-02-21T01:47:14;27.17;;;13.53;;
77324;SDS011;66387;53.440;10.390;2024-02-21T01:49:40;25.88;;;12.88;;
77324;SDS011;66387;53.440;10.390;2024-02-21T01:52:06;25.17;;;13.73;;
77324;SDS011;66387;53.440;10.390;2024-02-21T01:54:32;32.75;;;12.85;;
77324;SDS011;66387;53.440;10.390;2024-02-21T01:56:57;26.83;;;12.70;;
77324;SDS011;66387;53.440;10.390;2024-02-21T01:59:23;27.70;;;12.13;;
77324;SDS011;66387;53.440;10.390;2024-02-21T02:01:48;27.38;;;13.05;;
77324;SDS011;66387;53.440;10.390;2024-02-21T02:04:16;26.27;;;13.50;;
77324;SDS011;66387;53.440;10.390;2024-02-21T02:06:41;28.38;;;14.32;;
77324;SDS011;66387;53.440;10.390;2024-02-21T02:09:07;25.27;;;12.43;;
77324;SDS011;66387;53.440;10.390;2024-02-21T02:11:33;34.78;;;14.55;;
77324;SDS011;66387;53.440;10.390;2024-02-21T02:13:58;26.35;;;13.77;;
77324;SDS011;66387;53.440;10.390;2024-02-21T02:16:23;24.53;;;14.00;;
77324;SDS011;66387;53.440;10.390;2024-02-21T02:18:49;28.17;;;13.40;;
77324;SDS011;66387;53.440;10.390;2024-02-21T02:21:19;35.47;;;14.50;;
77324;SDS011;66387;53.440;10.390;2024-02-21T02:24:07;27.95;;;15.27;;
77324;SDS011;66387;53.440;10.390;2024-02-21T02:26:32;28.97;;;13.53;;
77324;SDS011;66387;53.440;10.390;2024-02-21T02:28:58;31.40;;;14.37;;
77324;SDS011;66387;53.440;10.390;2024-02-21T02:31:23;33.60;;;13.43;;
77324;SDS011;66387;53.440;10.390;2024-02-21T02:33:48;31.00;;;13.77;;
77324;SDS011;66387;53.440;10.390;2024-02-21T02:36:13;32.03;;;15.48;;
77324;SDS011;66387;53.440;10.390;2024-02-21T02:38:39;33.80;;;14.27;;
77324;SDS011;66387;53.440;10.390;2024-02-21T02:41:04;31.60;;;15.17;;
77324;SDS011;66387;53.440;10.390;2024-02-21T02:43:29;27.27;;;15.77;;
77324;SDS011;66387;53.440;10.390;2024-02-21T02:45:55;31.57;;;16.80;;
77324;SDS011;66387;53.440;10.390;2024-02-21T02:48:20;32.60;;;15.30;;
77324;SDS011;66387;53.440;10.390;2024-02-21T02:50:46;27.75;;;15.82;;
77324;SDS011;66387;53.440;10.390;2024-02-21T02:53:11;26.60;;;13.98;;
77324;SDS011;66387;53.440;10.390;2024-02-21T02:55:36;25.70;;;12.80;;
77324;SDS011;66387;53.440;10.390;2024-02-21T02:58:02;34.43;;;15.30;;
77324;SDS011;66387;53.440;10.390;2024-02-21T03:00:28;31.33;;;15.10;;
77324;SDS011;66387;53.440;10.390;2024-02-21T03:02:53;28.33;;;14.60;;
77324;SDS011;66387;53.440;10.390;2024-02-21T03:05:19;27.80;;;13.40;;
77324;SDS011;66387;53.440;10.390;2024-02-21T03:07:45;23.90;;;13.35;;
77324;SDS011;66387;53.440;10.390;2024-02-21T03:10:11;30.48;;;15.57;;
77324;SDS011;66387;53.440;10.390;2024-02-21T03:12:37;31.15;;;16.65;;
77324;SDS011;66387;53.440;10.390;2024-02-21T03:15:03;28.45;;;14.18;;
77324;SDS011;66387;53.440;10.390;2024-02-21T03:17:29;31.13;;;14.52;;
77324;SDS011;66387;53.440;10.390;2024-02-21T03:19:55;27.73;;;15.18;;
77324;SDS011;66387;53.440;10.390;2024-02-21T03:22:20;26.88;;;13.82;;
77324;SDS011;66387;53.440;10.390;2024-02-21T03:24:47;27.10;;;14.45;;
77324;SDS011;66387;53.440;10.390;2024-02-21T03:27:12;33.37;;;16.63;;
77324;SDS011;66387;53.440;10.390;2024-02-21T03:29:37;33.28;;;15.80;;
77324;SDS011;66387;53.440;10.390;2024-02-21T03:32:03;32.92;;;16.38;;
77324;SDS011;66387;53.440;10.390;2024-02-21T03:34:28;29.27;;;15.38;;
77324;SDS011;66387;53.440;10.390;2024-02-21T03:36:53;37.40;;;15.37;;
77324;SDS011;66387;53.440;10.390;2024-02-21T03:39:18;29.63;;;15.23;;
77324;SDS011;66387;53.440;10.390;2024-02-21T03:41:44;33.40;;;14.80;;
77324;SDS011;66387;53.440;10.390;2024-02-21T03:44:09;26.83;;;12.90;;
77324;SDS011;66387;53.440;10.390;2024-02-21T03:46:34;30.77;;;14.60;;
77324;SDS011;66387;53.440;10.390;2024-02-21T03:49:00;27.75;;;14.82;;
77324;SDS011;66387;53.440;10.390;2024-02-21T03:51:25;33.53;;;15.25;;
77324;SDS011;66387;53.440;10.390;2024-02-21T03:53:51;29.75;;;15.63;;
77324;SDS011;66387;53.440;10.390;2024-02-21T03:56:16;23.03;;;13.23;;
77324;SDS011;66387;53.440;10.390;2024-02-21T03:58:41;32.37;;;15.50;;
77324;SDS011;66387;53.440;10.390;2024-02-21T04:01:07;29.10;;;14.27;;
77324;SDS011;66387;53.440;10.390;2024-02-21T04:03:32;33.03;;;15.17;;
77324;SDS011;66387;53.440;10.390;2024-02-21T04:05:57;31.50;;;15.13;;
77324;SDS011;66387;53.440;10.390;2024-02-21T04:08:22;26.83;;;13.33;;
77324;SDS011;66387;53.440;10.390;2024-02-21T04:10:48;28.55;;;14.85;;
77324;SDS011;66387;53.440;10.390;2024-02-21T04:13:14;24.88;;;13.60;;
77324;SDS011;66387;53.440;10.390;2024-02-21T04:15:39;28.00;;;14.17;;
77324;SDS011;66387;53.440;10.390;2024-02-21T04:18:04;26.07;;;13.90;;
77324;SDS011;66387;53.440;10.390;2024-02-21T04:20:30;30.30;;;13.75;;
77324;SDS011;66387;53.440;10.390;2024-02-21T04:22:55;26.45;;;12.77;;
77324;SDS011;66387;53.440;10.390;2024-02-21T04:25:21;29.55;;;14.15;;
77324;SDS011;66387;53.440;10.390;2024-02-21T04:27:46;29.20;;;14.20;;
77324;SDS011;66387;53.440;10.390;2024-02-21T04:30:12;30.10;;;14.68;;
77324;SDS011;66387;53.440;10.390;2024-02-21T04:32:37;33.58;;;15.18;;
77324;SDS011;66387;53.440;10.390;2024-02-21T04:35:04;23.95;;;13.35;;
77324;SDS011;66387;53.440;10.390;2024-02-21T04:37:29;28.88;;;15.55;;
77324;SDS011;66387;53.440;10.390;2024-02-21T04:39:55;24.98;;;13.77;;
77324;SDS011;66387;53.440;10.390;2024-02-21T04:42:21;28.80;;;13.98;;
77324;SDS011;66387;53.440;10.390;2024-02-21T04:44:46;27.17;;;13.57;;
77324;SDS011;66387;53.440;10.390;2024-02-21T04:47:11;27.98;;;12.82;;
77324;SDS011;66387;53.440;10.390;2024-02-21T04:49:37;30.05;;;14.60;;
77324;SDS011;66387;53.440;10.390;2024-02-21T04:52:03;26.45;;;14.38;;
77324;SDS011;66387;53.440;10.390;2024-02-21T04:54:29;22.90;;;12.25;;
77324;SDS011;66387;53.440;10.390;2024-02-21T04:56:54;30.43;;;14.87;;
77324;SDS011;66387;53.440;10.390;2024-02-21T04:59:19;26.53;;;11.83;;
77324;SDS011;66387;53.440;10.390;2024-02-21T05:01:44;28.87;;;15.03;;
77324;SDS011;66387;53.440;10.390;2024-02-21T05:04:10;28.83;;;14.53;;
77324;SDS011;66387;53.440;10.390;2024-02-21T05:06:38;28.13;;;13.60;;
77324;SDS011;66387;53.440;10.390;2024-02-21T05:09:04;28.80;;;13.95;;
77324;SDS011;66387;53.440;10.390;2024-02-21T05:11:30;24.27;;;11.85;;
77324;SDS011;66387;53.440;10.390;2024-02-21T05:13:56;26.42;;;15.00;;
77324;SDS011;66387;53.440;10.390;2024-02-21T05:16:21;25.67;;;13.63;;
77324;SDS011;66387;53.440;10.390;2024-02-21T05:18:46;28.87;;;13.07;;
77324;SDS011;66387;53.440;10.390;2024-02-21T05:21:11;28.00;;;13.97;;
77324;SDS011;66387;53.440;10.390;2024-02-21T05:23:37;25.67;;;13.63;;
77324;SDS011;66387;53.440;10.390;2024-02-21T05:26:04;26.13;;;14.30;;
77324;SDS011;66387;53.440;10.390;2024-02-21T05:28:29;25.40;;;12.20;;
77324;SDS011;66387;53.440;10.390;2024-02-21T05:30:55;27.23;;;13.55;;
77324;SDS011;66387;53.440;10.390;2024-02-21T05:33:20;24.00;;;13.10;;
77324;SDS011;66387;53.440;10.390;2024-02-21T05:35:48;21.55;;;11.27;;
77324;SDS011;66387;53.440;10.390;2024-02-21T05:38:14;21.77;;;11.02;;
77324;SDS011;66387;53.440;10.390;2024-02-21T05:40:39;25.30;;;12.68;;
77324;SDS011;66387;53.440;10.390;2024-02-21T05:43:06;25.45;;;12.70;;
77324;SDS011;66387;53.440;10.390;2024-02-21T05:45:35;28.70;;;14.65;;
77324;SDS011;66387;53.440;10.390;2024-02-21T05:48:00;26.23;;;14.18;;
77324;SDS011;66387;53.440;10.390;2024-02-21T05:50:26;24.63;;;13.40;;
77324;SDS011;66387;53.440;10.390;2024-02-21T05:52:54;22.60;;;13.73;;
77324;SDS011;66387;53.440;10.390;2024-02-21T05:55:20;22.98;;;11.75;;
77324;SDS011;66387;53.440;10.390;2024-02-21T05:57:46;27.13;;;13.38;;
77324;SDS011;66387;53.440;10.390;2024-02-21T06:00:11;22.43;;;11.13;;
77324;SDS011;66387;53.440;10.390;2024-02-21T06:02:37;18.60;;;10.40;;
77324;SDS011;66387;53.440;10.390;2024-02-21T06:05:02;20.33;;;11.43;;
77324;SDS011;66387;53.440;10.390;2024-02-21T06:07:27;22.00;;;11.30;;
77324;SDS011;66387;53.440;10.390;2024-02-21T06:09:53;24.35;;;11.25;;
77324;SDS011;66387;53.440;10.390;2024-02-21T06:12:18;21.73;;;11.20;;
77324;SDS011;66387;53.440;10.390;2024-02-21T06:14:43;26.40;;;12.83;;
77324;SDS011;66387;53.440;10.390;2024-02-21T06:17:08;19.97;;;11.50;;
77324;SDS011;66387;53.440;10.390;2024-02-21T06:19:34;19.03;;;9.53;;
77324;SDS011;66387;53.440;10.390;2024-02-21T06:21:59;21.43;;;9.77;;
77324;SDS011;66387;53.440;10.390;2024-02-21T06:24:24;20.42;;;11.93;;
77324;SDS011;66387;53.440;10.390;2024-02-21T06:26:50;20.80;;;11.63;;
77324;SDS011;66387;53.440;10.390;2024-02-21T06:29:15;20.77;;;10.77;;
77324;SDS011;66387;53.440;10.390;2024-02-21T06:31:40;23.47;;;11.33;;
77324;SDS011;66387;53.440;10.390;2024-02-21T06:34:06;18.25;;;9.52;;
77324;SDS011;66387;53.440;10.390;2024-02-21T06:36:31;17.75;;;9.00;;
77324;SDS011;66387;53.440;10.390;2024-02-21T06:38:56;17.35;;;9.48;;
77324;SDS011;66387;53.440;10.390;2024-02-21T06:41:23;16.95;;;8.68;;
77324;SDS011;66387;53.440;10.390;2024-02-21T06:43:49;21.52;;;9.65;;
77324;SDS011;66387;53.440;10.390;2024-02-21T06:46:27;17.47;;;8.70;;
77324;SDS011;66387;53.440;10.390;2024-02-21T06:48:56;15.40;;;9.60;;
77324;SDS011;66387;53.440;10.390;2024-02-21T06:51:22;16.80;;;9.43;;
77324;SDS011;66387;53.440;10.390;2024-02-21T06:53:47;15.82;;;9.45;;
77324;SDS011;66387;53.440;10.390;2024-02-21T06:56:13;16.77;;;9.02;;
77324;SDS011;66387;53.440;10.390;2024-02-21T06:58:38;15.38;;;8.00;;
77324;SDS011;66387;53.440;10.390;2024-02-21T07:01:03;16.80;;;8.10;;
77324;SDS011;66387;53.440;10.390;2024-02-21T07:03:29;20.00;;;9.03;;
77324;SDS011;66387;53.440;10.390;2024-02-21T07:05:54;14.63;;;7.47;;
77324;SDS011;66387;53.440;10.390;2024-02-21T07:08:19;15.43;;;8.70;;
77324;SDS011;66387;53.440;10.390;2024-02-21T07:10:44;18.40;;;8.47;;
77324;SDS011;66387;53.440;10.390;2024-02-21T07:13:10;15.30;;;7.97;;
77324;SDS011;66387;53.440;10.390;2024-02-21T07:15:35;12.67;;;7.20;;
77324;SDS011;66387;53.440;10.390;2024-02-21T07:18:01;13.70;;;7.18;;
77324;SDS011;66387;53.440;10.390;2024-02-21T07:20:26;13.23;;;7.75;;
77324;SDS011;66387;53.440;10.390;2024-02-21T07:22:52;11.55;;;6.43;;
77324;SDS011;66387;53.440;10.390;2024-02-21T07:25:17;11.10;;;6.35;;
77324;SDS011;66387;53.440;10.390;2024-02-21T07:27:43;11.83;;;6.63;;
77324;SDS011;66387;53.440;10.390;2024-02-21T07:30:09;12.45;;;7.53;;
77324;SDS011;66387;53.440;10.390;2024-02-21T07:32:34;15.93;;;7.75;;
77324;SDS011;66387;53.440;10.390;2024-02-21T07:34:59;10.73;;;6.33;;
77324;SDS011;66387;53.440;10.390;2024-02-21T07:37:25;10.67;;;6.27;;
77324;SDS011;66387;53.440;10.390;2024-02-21T07:39:50;12.53;;;6.47;;
77324;SDS011;66387;53.440;10.390;2024-02-21T07:42:15;10.53;;;5.57;;
77324;SDS011;66387;53.440;10.390;2024-02-21T07:44:41;11.23;;;5.60;;
77324;SDS011;66387;53.440;10.390;2024-02-21T07:47:06;11.20;;;6.65;;
77324;SDS011;66387;53.440;10.390;2024-02-21T07:49:32;8.55;;;6.00;;
77324;SDS011;66387;53.440;10.390;2024-02-21T07:51:57;9.23;;;4.75;;
77324;SDS011;66387;53.440;10.390;2024-02-21T07:54:22;11.73;;;6.17;;
77324;SDS011;66387;53.440;10.390;2024-02-21T07:56:48;9.97;;;5.47;;
77324;SDS011;66387;53.440;10.390;2024-02-21T07:59:13;7.73;;;4.77;;
77324;SDS011;66387;53.440;10.390;2024-02-21T08:01:39;7.47;;;4.72;;
77324;SDS011;66387;53.440;10.390;2024-02-21T08:04:05;7.35;;;4.57;;
77324;SDS011;66387;53.440;10.390;2024-02-21T08:06:30;10.10;;;5.13;;
77324;SDS011;66387;53.440;10.390;2024-02-21T08:08:56;9.38;;;5.07;;
77324;SDS011;66387;53.440;10.390;2024-02-21T08:11:22;10.15;;;5.47;;
77324;SDS011;66387;53.440;10.390;2024-02-21T08:13:47;8.05;;;4.75;;
77324;SDS011;66387;53.440;10.390;2024-02-21T08:16:12;7.00;;;4.20;;
77324;SDS011;66387;53.440;10.390;2024-02-21T08:18:38;6.30;;;3.88;;
77324;SDS011;66387;53.440;10.390;2024-02-21T08:21:03;8.20;;;4.20;;
77324;SDS011;66387;53.440;10.390;2024-02-21T08:23:29;8.13;;;4.93;;
77324;SDS011;66387;53.440;10.390;2024-02-21T08:25:54;9.65;;;4.78;;
77324;SDS011;66387;53.440;10.390;2024-02-21T08:28:20;7.35;;;4.13;;
77324;SDS011;66387;53.440;10.390;2024-02-21T08:30:45;7.17;;;4.97;;
77324;SDS011;66387;53.440;10.390;2024-02-21T08:33:13;7.93;;;4.45;;
77324;SDS011;66387;53.440;10.390;2024-02-21T08:35:39;6.68;;;3.72;;
77324;SDS011;66387;53.440;10.390;2024-02-21T08:38:05;5.33;;;4.37;;
77324;SDS011;66387;53.440;10.390;2024-02-21T08:40:30;7.20;;;4.17;;
77324;SDS011;66387;53.440;10.390;2024-02-21T08:42:55;8.47;;;4.83;;
77324;SDS011;66387;53.440;10.390;2024-02-21T08:45:20;6.13;;;3.63;;
77324;SDS011;66387;53.440;10.390;2024-02-21T08:47:46;6.22;;;4.15;;
77324;SDS011;66387;53.440;10.390;2024-02-21T08:50:11;7.13;;;4.30;;
77324;SDS011;66387;53.440;10.390;2024-02-21T08:52:36;7.72;;;4.03;;
77324;SDS011;66387;53.440;10.390;2024-02-21T08:55:02;6.63;;;3.93;;
77324;SDS011;66387;53.440;10.390;2024-02-21T08:57:27;7.15;;;4.18;;
77324;SDS011;66387;53.440;10.390;2024-02-21T08:59:52;6.88;;;4.32;;
77324;SDS011;66387;53.440;10.390;2024-02-21T09:02:18;7.33;;;3.37;;
77324;SDS011;66387;53.440;10.390;2024-02-21T09:04:43;8.80;;;4.88;;
77324;SDS011;66387;53.440;10.390;2024-02-21T09:07:09;8.50;;;4.90;;
77324;SDS011;66387;53.440;10.390;2024-02-21T09:09:34;6.38;;;4.05;;
77324;SDS011;66387;53.440;10.390;2024-02-21T09:12:00;8.32;;;5.40;;
77324;SDS011;66387;53.440;10.390;2024-02-21T09:14:30;10.98;;;4.43;;
77324;SDS011;66387;53.440;10.390;2024-02-21T09:16:56;7.07;;;4.25;;
77324;SDS011;66387;53.440;10.390;2024-02-21T09:19:21;7.67;;;5.50;;
77324;SDS011;66387;53.440;10.390;2024-02-21T09:21:47;8.80;;;5.00;;
77324;SDS011;66387;53.440;10.390;2024-02-21T09:24:12;6.37;;;5.13;;
77324;SDS011;66387;53.440;10.390;2024-02-21T09:26:38;5.47;;;4.23;;
77324;SDS011;66387;53.440;10.390;2024-02-21T09:29:03;8.27;;;5.20;;
77324;SDS011;66387;53.440;10.390;2024-02-21T09:31:28;9.30;;;5.57;;
77324;SDS011;66387;53.440;10.390;2024-02-21T09:33:54;8.32;;;5.45;;
77324;SDS011;66387;53.440;10.390;2024-02-21T09:36:19;8.87;;;5.20;;
77324;SDS011;66387;53.440;10.390;2024-02-21T09:38:46;10.25;;;5.90;;
77324;SDS011;66387;53.440;10.390;2024-02-21T09:41:15;9.83;;;5.30;;
77324;SDS011;66387;53.440;10.390;2024-02-21T09:43:44;10.00;;;5.63;;
77324;SDS011;66387;53.440;10.390;2024-02-21T09:46:16;8.20;;;5.35;;
77324;SDS011;66387;53.440;10.390;2024-02-21T09:48:52;9.85;;;5.03;;
77324;SDS011;66387;53.440;10.390;2024-02-21T09:51:41;9.35;;;5.63;;
77324;SDS011;66387;53.440;10.390;2024-02-21T09:54:07;9.65;;;5.68;;
77324;SDS011;66387;53.440;10.390;2024-02-21T09:56:33;10.23;;;6.60;;
77324;SDS011;66387;53.440;10.390;2024-02-21T09:58:58;10.95;;;6.38;;
77324;SDS011;66387;53.440;10.390;2024-02-21T10:01:24;10.70;;;6.00;;
77324;SDS011;66387;53.440;10.390;2024-02-21T10:03:49;11.00;;;6.13;;
77324;SDS011;66387;53.440;10.390;2024-02-21T10:06:14;12.77;;;7.33;;
77324;SDS011;66387;53.440;10.390;2024-02-21T10:08:40;12.73;;;6.38;;
77324;SDS011;66387;53.440;10.390;2024-02-21T10:11:05;10.77;;;6.37;;
77324;SDS011;66387;53.440;10.390;2024-02-21T10:13:30;12.37;;;7.23;;
77324;SDS011;66387;53.440;10.390;2024-02-21T10:16:03;13.27;;;6.82;;
77324;SDS011;66387;53.440;10.390;2024-02-21T10:18:28;11.65;;;7.40;;
77324;SDS011;66387;53.440;10.390;2024-02-21T10:21:00;13.33;;;7.17;;
77324;SDS011;66387;53.440;10.390;2024-02-21T10:23:29;13.05;;;7.90;;
77324;SDS011;66387;53.440;10.390;2024-02-21T10:26:06;15.73;;;8.55;;
77324;SDS011;66387;53.440;10.390;2024-02-21T10:28:32;13.65;;;8.02;;
77324;SDS011;66387;53.440;10.390;2024-02-21T10:30:57;19.63;;;9.43;;
77324;SDS011;66387;53.440;10.390;2024-02-21T10:33:23;18.07;;;9.20;;
77324;SDS011;66387;53.440;10.390;2024-02-21T10:35:50;17.98;;;9.80;;
77324;SDS011;66387;53.440;10.390;2024-02-21T10:38:16;19.55;;;9.65;;
77324;SDS011;66387;53.440;10.390;2024-02-21T10:40:41;16.90;;;8.80;;
77324;SDS011;66387;53.440;10.390;2024-02-21T10:43:09;17.48;;;9.43;;
77324;SDS011;66387;53.440;10.390;2024-02-21T10:45:37;20.58;;;10.50;;
77324;SDS011;66387;53.440;10.390;2024-02-21T10:48:13;19.65;;;11.38;;
77324;SDS011;66387;53.440;10.390;2024-02-21T10:56:28;20.55;;;10.80;;
77324;SDS011;66387;53.440;10.390;2024-02-21T10:58:55;20.38;;;10.65;;
77324;SDS011;66387;53.440;10.390;2024-02-21T11:01:23;25.02;;;11.15;;
77324;SDS011;66387;53.440;10.390;2024-02-21T11:03:48;18.63;;;9.93;;
77324;SDS011;66387;53.440;10.390;2024-02-21T11:06:15;17.35;;;10.45;;
77324;SDS011;66387;53.440;10.390;2024-02-21T11:08:42;19.77;;;9.52;;
77324;SDS011;66387;53.440;10.390;2024-02-21T11:11:11;18.77;;;10.02;;
77324;SDS011;66387;53.440;10.390;2024-02-21T11:13:42;19.80;;;10.23;;
77324;SDS011;66387;53.440;10.390;2024-02-21T11:16:12;19.85;;;10.80;;
77324;SDS011;66387;53.440;10.390;2024-02-21T11:18:48;16.27;;;8.95;;
77324;SDS011;66387;53.440;10.390;2024-02-21T11:21:13;17.40;;;10.25;;
77324;SDS011;66387;53.440;10.390;2024-02-21T11:23:38;16.93;;;9.17;;
77324;SDS011;66387;53.440;10.390;2024-02-21T11:26:18;16.55;;;8.10;;
77324;SDS011;66387;53.440;10.390;2024-02-21T11:28:55;16.05;;;8.75;;
77324;SDS011;66387;53.440;10.390;2024-02-21T11:31:38;14.52;;;8.48;;
77324;SDS011;66387;53.440;10.390;2024-02-21T11:34:05;14.45;;;7.18;;
77324;SDS011;66387;53.440;10.390;2024-02-21T11:36:33;17.73;;;8.25;;
77324;SDS011;66387;53.440;10.390;2024-02-21T11:39:04;14.00;;;7.93;;
77324;SDS011;66387;53.440;10.390;2024-02-21T11:41:30;15.35;;;8.63;;
77324;SDS011;66387;53.440;10.390;2024-02-21T11:43:55;13.13;;;6.18;;
77324;SDS011;66387;53.440;10.390;2024-02-21T11:46:20;17.37;;;7.87;;
77324;SDS011;66387;53.440;10.390;2024-02-21T11:48:46;9.45;;;6.40;;
77324;SDS011;66387;53.440;10.390;2024-02-21T11:51:20;12.95;;;7.40;;
77324;SDS011;66387;53.440;10.390;2024-02-21T11:53:47;13.20;;;6.10;;
77324;SDS011;66387;53.440;10.390;2024-02-21T11:56:13;12.43;;;7.03;;
77324;SDS011;66387;53.440;10.390;2024-02-21T11:58:39;10.93;;;6.85;;
77324;SDS011;66387;53.440;10.390;2024-02-21T12:01:04;11.83;;;7.30;;
77324;SDS011;66387;53.440;10.390;2024-02-21T12:03:29;12.75;;;7.20;;
77324;SDS011;66387;53.440;10.390;2024-02-21T12:05:55;14.38;;;6.80;;
77324;SDS011;66387;53.440;10.390;2024-02-21T12:08:22;13.00;;;7.63;;
77324;SDS011;66387;53.440;10.390;2024-02-21T12:10:47;9.23;;;6.43;;
77324;SDS011;66387;53.440;10.390;2024-02-21T12:13:16;12.30;;;7.45;;
77324;SDS011;66387;53.440;10.390;2024-02-21T12:15:41;13.23;;;6.57;;
77324;SDS011;66387;53.440;10.390;2024-02-21T12:18:06;15.30;;;6.97;;
77324;SDS011;66387;53.440;10.390;2024-02-21T12:20:31;13.50;;;7.43;;
77324;SDS011;66387;53.440;10.390;2024-02-21T12:22:59;16.27;;;8.30;;
77324;SDS011;66387;53.440;10.390;2024-02-21T12:25:25;17.42;;;7.72;;
77324;SDS011;66387;53.440;10.390;2024-02-21T12:27:53;16.70;;;8.85;;
77324;SDS011;66387;53.440;10.390;2024-02-21T12:30:19;14.35;;;7.35;;
77324;SDS011;66387;53.440;10.390;2024-02-21T12:32:44;13.75;;;8.32;;
77324;SDS011;66387;53.440;10.390;2024-02-21T12:35:13;14.55;;;7.90;;
77324;SDS011;66387;53.440;10.390;2024-02-21T12:37:39;17.48;;;8.55;;
77324;SDS011;66387;53.440;10.390;2024-02-21T12:40:08;16.37;;;7.37;;
77324;SDS011;66387;53.440;10.390;2024-02-21T12:42:34;18.95;;;9.00;;
77324;SDS011;66387;53.440;10.390;2024-02-21T12:45:00;18.35;;;9.18;;
77324;SDS011;66387;53.440;10.390;2024-02-21T12:47:25;18.17;;;9.23;;
77324;SDS011;66387;53.440;10.390;2024-02-21T12:49:51;14.00;;;8.48;;
77324;SDS011;66387;53.440;10.390;2024-02-21T12:52:17;14.75;;;9.50;;
77324;SDS011;66387;53.440;10.390;2024-02-21T12:54:42;15.97;;;9.17;;
77324;SDS011;66387;53.440;10.390;2024-02-21T12:57:08;25.07;;;11.27;;
77324;SDS011;66387;53.440;10.390;2024-02-21T12:59:33;16.05;;;8.98;;
77324;SDS011;66387;53.440;10.390;2024-02-21T13:01:58;18.05;;;9.13;;
77324;SDS011;66387;53.440;10.390;2024-02-21T13:04:24;15.63;;;9.60;;
77324;SDS011;66387;53.440;10.390;2024-02-21T13:06:49;16.00;;;10.80;;
77324;SDS011;66387;53.440;10.390;2024-02-21T13:09:14;17.40;;;10.07;;
77324;SDS011;66387;53.440;10.390;2024-02-21T13:11:40;15.10;;;9.60;;
77324;SDS011;66387;53.440;10.390;2024-02-21T13:14:06;16.85;;;11.25;;
77324;SDS011;66387;53.440;10.390;2024-02-21T13:16:31;19.83;;;10.38;;
77324;SDS011;66387;53.440;10.390;2024-02-21T13:18:56;19.20;;;11.70;;
77324;SDS011;66387;53.440;10.390;2024-02-21T13:21:22;20.50;;;10.70;;
77324;SDS011;66387;53.440;10.390;2024-02-21T13:23:47;16.35;;;10.50;;
77324;SDS011;66387;53.440;10.390;2024-02-21T13:26:12;17.50;;;10.53;;
77324;SDS011;66387;53.440;10.390;2024-02-21T13:28:39;19.52;;;10.00;;
77324;SDS011;66387;53.440;10.390;2024-02-21T13:31:04;20.63;;;11.45;;
77324;SDS011;66387;53.440;10.390;2024-02-21T13:33:29;17.47;;;10.63;;
77324;SDS011;66387;53.440;10.390;2024-02-21T13:35:55;19.88;;;9.80;;
77324;SDS011;66387;53.440;10.390;2024-02-21T13:38:20;17.57;;;11.17;;
77324;SDS011;66387;53.440;10.390;2024-02-21T13:40:45;17.73;;;9.48;;
77324;SDS011;66387;53.440;10.390;2024-02-21T13:43:11;20.10;;;11.07;;
77324;SDS011;66387;53.440;10.390;2024-02-21T13:45:37;12.57;;;9.30;;
77324;SDS011;66387;53.440;10.390;2024-02-21T13:48:03;16.45;;;9.50;;
77324;SDS011;66387;53.440;10.390;2024-02-21T13:50:31;16.30;;;9.57;;
77324;SDS011;66387;53.440;10.390;2024-02-21T13:52:57;12.25;;;9.43;;
77324;SDS011;66387;53.440;10.390;2024-02-21T13:55:22;14.35;;;8.18;;
77324;SDS011;66387;53.440;10.390;2024-02-21T13:57:50;13.05;;;9.18;;
77324;SDS011;66387;53.440;10.390;2024-02-21T14:00:16;12.85;;;9.35;;
77324;SDS011;66387;53.440;10.390;2024-02-21T14:02:43;16.38;;;9.90;;
77324;SDS011;66387;53.440;10.390;2024-02-21T14:05:08;12.07;;;8.40;;
77324;SDS011;66387;53.440;10.390;2024-02-21T14:07:34;17.30;;;9.90;;
77324;SDS011;66387;53.440;10.390;2024-02-21T14:09:59;17.20;;;9.57;;
77324;SDS011;66387;53.440;10.390;2024-02-21T14:12:24;14.53;;;9.27;;
77324;SDS011;66387;53.440;10.390;2024-02-21T14:14:49;17.50;;;9.30;;